METAR Data
IDs: Format: Raw Decoded Include TAF

Data at: 0413 UTC 27 Jan 2021

FNLU 270400Z VRB02KT 9999 FEW020 SCT070 26/23 Q1009 NOSIG

TAF FNLU 262300Z 2700/2806 18006KT 9999 FEW020
  TEMPO 2703/2707 12005KT 8000 BKN020
  BECMG 2710/2712 27010KT
  BECMG 2718/2720 21006KT


No METAR found for FNCA

TAF FNCA 262300Z 2700/2712 18005KT 9999 SCT012 BKN025
  TEMPO 2703/2707 VRB03KT 8000
  BECMG 2709/2711 26008KT


No METAR found for FNBG

TAF FNBG 262300Z 2700/2712 29008KT 9999 FEW018

No METAR found for FNHU

TAF FNHU 262300Z 2700/2712 23005KT 9999 FEW015
  BECMG 2709/2711 27008KT


No METAR found for FNUE

TAF FNUE 262300Z 2700/2712 34008KT 9999 SCT020 FEW028CB
  PROB30
  TEMPO 2703/2708 4000 DZ BR
  BECMG 2710/2712 8000 -RA


No METAR found for FNGI

TAF FNGI 262300Z 2700/2712 24008KT 9999 SCT016 BKN020
  TEMPO 2703/2709 19005KT 4000 RA BKN010


No METAR found for FNUB

TAF FNUB 262300Z 2700/2712 03006KT 9999 SCT025
  BECMG 2709/2711 34010KT


No METAR found for FNMO

TAF FNMO 262300Z 2700/2712 VRB03KT 9999 SCT018
  TEMPO 2702/2706 18010KT
  BECMG 2709/2711 27014KT


No METAR found for FNUG
No TAF found for FNUG

No METAR found for FNMA

TAF FNMA 262300Z 2700/2712 27008KT 9999 BKN012
  TEMPO 2702/2708 3000 RA
  BECMG 2708/2710 8000


No METAR found for FNSA

TAF FNSA 262300Z 2700/2712 35005KT 9999 SCT025 FEW028CB
  PROB30
  TEMPO 2703/2707 7000


No METAR found for FNSO

TAF FNSO 262300Z 2700/2712 17006KT 9999 SCT015
  TEMPO 2708/2712 24008KT


No METAR found for FNBC
No TAF found for FNBC

No METAR found for FNSU
No TAF found for FNSU

No METAR found for FNDU

TAF FNDU 262300Z 2700/2712 18005KT 9999 SCT023 FEW030CB
  PROB30
  TEMPO 2703/2707 8000


No METAR found for FNME

TAF FNME 262300Z 2700/2712 33005KT 9999 SCT022 FEW025TCU
  PROB30
  TEMPO 2703/2708 7000 DZ


No METAR found for FNCT

TAF FNCT 262300Z 2700/2712 VRB03KT 9999 FEW020
  BECMG 2710/2712 31010KT


No METAR found for FNKU

TAF FNKU 262300Z 2700/2712 25008KT CAVOK
  BECMG 2710/2712 9999 BKN050